Time;durP1;ratioP1;P1;durP2;ratioP2;P2;SDS_P1;SDS_P2;PMS_P1;PMS_P2;Temp;Humidity;BMP_temperature;BMP_pressure;BME280_temperature;BME280_humidity;BME280_pressure;Samples;Min_cycle;Max_cycle;Signal;HPM_P1;HPM_P2
2023/03/08 00:00:22;;;;;;;;;;;;;;;;;;1036109;28;4037;-53
2023/03/08 00:01:13;;;;;;;;;;;;;;;;;;1034880;28;4095;-52
2023/03/08 00:01:43;;;;;;;;;;;;;;;;;;1033682;28;1871;-53
2023/03/08 00:02:14;;;;;;;;;;;;;;;;;;1032493;28;3784;-49
2023/03/08 00:02:44;;;;;;;;;;;;;;;;;;1041564;28;1820;-54
2023/03/08 00:03:14;;;;;;;;;;;;;;;;;;1041898;28;4125;-54
2023/03/08 00:03:45;;;;;;;;;;;;;;;;;;1040782;28;1873;-55
2023/03/08 00:04:15;;;;;;;;;;;;;;;;;;1036921;28;3952;-50
2023/03/08 00:04:45;;;;;;;;;;;;;;;;;;1040727;28;2390;-55
2023/03/08 00:05:15;;;;;;;;;;;;;;;;;;1041203;28;4042;-54
2023/03/08 00:05:46;;;;;;;;;;;;;;;;;;1042813;28;1909;-53
2023/03/08 00:06:16;;;;;;;;;;;;;;;;;;1041095;28;4036;-54
2023/03/08 00:06:46;;;;;;;;;;;;;;;;;;1040785;28;2828;-51
2023/03/08 00:07:16;;;;;;;;;;;;;;;;;;1042505;28;3881;-54
2023/03/08 00:07:47;;;;;;;;;;;;;;;;;;1042308;28;2067;-51
2023/03/08 00:08:17;;;;;;;;;;;;;;;;;;1043322;28;3963;-50
2023/03/08 00:08:48;;;;;;;;;;;;;;;;;;1042584;28;1887;-54
2023/03/08 00:09:18;;;;;;;;;;;;;;;;;;1042396;28;3853;-52
2023/03/08 00:09:48;;;;;;;;;;;;;;;;;;1042245;28;2022;-55
2023/03/08 00:10:19;;;;;;;;;;;;;;;;;;1042256;28;4045;-54
2023/03/08 00:10:49;;;;;;;;;;;;;;;;;;1042316;28;1749;-55
2023/03/08 00:11:19;;;;;;;;;;;;;;;;;;1042759;28;4173;-54
2023/03/08 00:11:50;;;;;;;;;;;;;;;;;;1043276;28;1925;-49
2023/03/08 00:12:21;;;;;;;;;;;;;;;;;;1037620;28;4241;-53
2023/03/08 00:12:51;;;;;;;;;;;;;;;;;;1038023;28;2091;-53
2023/03/08 00:13:22;;;;;;;;;;;;;;;;;;1038103;28;3919;-53
2023/03/08 00:13:52;;;;;;;;;;;;;;;;;;1038677;28;2162;-53
2023/03/08 00:14:23;;;;;;;;;;;;;;;;;;1037205;28;4161;-55
2023/03/08 00:14:53;;;;;;;;;;;;;;;;;;1036846;28;2803;-51
2023/03/08 00:15:23;;;;;;;;;;;;;;;;;;1036846;28;3833;-54
2023/03/08 00:15:57;;;;;;;;;;;;;;;;;;1039041;28;1781;-53
2023/03/08 00:16:27;;;;;;;;;;;;;;;;;;1037229;28;3867;-55
2023/03/08 00:16:57;;;;;;;;;;;;;;;;;;1038542;28;1443;-52
2023/03/08 00:17:28;;;;;;;;;;;;;;;;;;1041060;28;5214;-54
2023/03/08 00:17:58;;;;;;;;;;;;;;;;;;1042801;28;1716;-53
2023/03/08 00:18:28;;;;;;;;;;;;;;;;;;1041660;28;3906;-51
2023/03/08 00:18:59;;;;;;;;;;;;;;;;;;1042226;28;2829;-52
2023/03/08 00:19:29;;;;;;;;;;;;;;;;;;1042128;28;3989;-54
2023/03/08 00:19:59;;;;;;;;;;;;;;;;;;1039378;28;2960;-52
2023/03/08 00:20:29;;;;;;;;;;;;;;;;;;1041696;28;4156;-53
2023/03/08 00:21:10;;;;;;;;;;;;;;;;;;1041787;28;1675;-53
2023/03/08 00:21:41;;;;;;;;;;;;;;;;;;1041106;28;3795;-53
2023/03/08 00:22:11;;;;;;;;;;;;;;;;;;1040595;28;4006;-54
2023/03/08 00:22:41;;;;;;;;;;;;;;;;;;1041727;28;2812;-55
2023/03/08 00:23:12;;;;;;;;;;;;;;;;;;1041660;28;3904;-51
2023/03/08 00:23:43;;;;;;;;;;;;;;;;;;1040168;28;3051;-56
2023/03/08 00:24:15;;;;;;;;;;;;;;;;;;1041515;28;4063;-54
2023/03/08 00:24:45;;;;;;;;;;;;;;;;;;1041099;28;2800;-52
2023/03/08 00:25:16;;;;;;;;;;;;;;;;;;1041819;28;4093;-52
2023/03/08 00:25:50;;;;;;;;;;;;;;;;;;1041489;28;2687;-53
2023/03/08 00:26:21;;;;;;;;;;;;;;;;;;1041374;28;5153;-55
2023/03/08 00:26:51;;;;;;;;;;;;;;;;;;1038336;28;2786;-51
2023/03/08 00:27:21;;;;;;;;;;;;;;;;;;1040283;28;4274;-54
2023/03/08 00:27:51;;;;;;;;;;;;;;;;;;1042128;28;2652;-53
2023/03/08 00:28:22;;;;;;;;;;;;;;;;;;1041842;28;4397;-55
2023/03/08 00:28:52;;;;;;;;;;;;;;;;;;1040968;28;2157;-54
2023/03/08 00:29:23;;;;;;;;;;;;;;;;;;1040479;28;3871;-54
2023/03/08 00:29:53;;;;;;;;;;;;;;;;;;1041323;28;2845;-53
2023/03/08 00:30:23;;;;;;;;;;;;;;;;;;1042025;28;3842;-55
2023/03/08 00:30:54;;;;;;;;;;;;;;;;;;1042390;28;1904;-55
2023/03/08 00:31:25;;;;;;;;;;;;;;;;;;1040889;28;4041;-56
2023/03/08 00:31:55;;;;;;;;;;;;;;;;;;1042368;28;2695;-52
2023/03/08 00:32:25;;;;;;;;;;;;;;;;;;1040403;28;4086;-53
2023/03/08 00:32:56;;;;;;;;;;;;;;;;;;1043208;28;1810;-52
2023/03/08 00:33:27;;;;;;;;;;;;;;;;;;1041941;28;4244;-54
2023/03/08 00:33:57;;;;;;;;;;;;;;;;;;1041123;28;2700;-55
2023/03/08 00:34:27;;;;;;;;;;;;;;;;;;1042643;28;4011;-51
2023/03/08 00:34:57;;;;;;;;;;;;;;;;;;1042832;28;1892;-53
2023/03/08 00:35:27;;;;;;;;;;;;;;;;;;1042114;28;3888;-52
2023/03/08 00:35:59;;;;;;;;;;;;;;;;;;1040700;28;2723;-51
2023/03/08 00:36:29;;;;;;;;;;;;;;;;;;1041097;28;3821;-52
2023/03/08 00:36:59;;;;;;;;;;;;;;;;;;1042479;28;3143;-51
2023/03/08 00:37:29;;;;;;;;;;;;;;;;;;1041517;28;3870;-53
2023/03/08 00:38:00;;;;;;;;;;;;;;;;;;1041365;28;2747;-52
2023/03/08 00:38:31;;;;;;;;;;;;;;;;;;1041632;28;3937;-52
2023/03/08 00:39:01;;;;;;;;;;;;;;;;;;1042622;28;1747;-51
2023/03/08 00:39:32;;;;;;;;;;;;;;;;;;1042394;28;3738;-50
2023/03/08 00:40:04;;;;;;;;;;;;;;;;;;1040701;28;2800;-51
2023/03/08 00:40:34;;;;;;;;;;;;;;;;;;1041723;28;3936;-54
2023/03/08 00:41:05;;;;;;;;;;;;;;;;;;1042099;28;4062;-52
2023/03/08 00:41:35;;;;;;;;;;;;;;;;;;1039442;28;1825;-53
2023/03/08 00:42:05;;;;;;;;;;;;;;;;;;1037638;28;4075;-52
2023/03/08 00:42:36;;;;;;;;;;;;;;;;;;1042393;28;1815;-51
2023/03/08 00:43:06;;;;;;;;;;;;;;;;;;1042051;28;3978;-52
2023/03/08 00:43:36;;;;;;;;;;;;;;;;;;1041525;28;1832;-52
2023/03/08 00:44:06;;;;;;;;;;;;;;;;;;1042264;28;4060;-54
2023/03/08 00:44:37;;;;;;;;;;;;;;;;;;1041653;28;1969;-52
2023/03/08 00:45:07;;;;;;;;;;;;;;;;;;1040640;28;4068;-53
2023/03/08 00:45:37;;;;;;;;;;;;;;;;;;1040790;28;2797;-52
2023/03/08 00:46:08;;;;;;;;;;;;;;;;;;1038375;28;3782;-54
2023/03/08 00:46:38;;;;;;;;;;;;;;;;;;1037863;28;1821;-52
2023/03/08 00:47:09;;;;;;;;;;;;;;;;;;1038393;28;5352;-49
2023/03/08 00:47:39;;;;;;;;;;;;;;;;;;1037745;28;2773;-53
2023/03/08 00:48:09;;;;;;;;;;;;;;;;;;1042113;28;3832;-52
2023/03/08 00:48:40;;;;;;;;;;;;;;;;;;1041367;28;2215;-56
2023/03/08 00:49:11;;;;;;;;;;;;;;;;;;1042502;28;3824;-53
2023/03/08 00:49:42;;;;;;;;;;;;;;;;;;1041779;28;2791;-51
2023/03/08 00:50:12;;;;;;;;;;;;;;;;;;1037754;28;3798;-53
2023/03/08 00:50:42;;;;;;;;;;;;;;;;;;1041192;28;2676;-53
2023/03/08 00:51:14;;;;;;;;;;;;;;;;;;1042118;28;4092;-51
2023/03/08 00:51:44;;;;;;;;;;;;;;;;;;1042357;28;2350;-52
2023/03/08 00:52:14;;;;;;;;;;;;;;;;;;1041355;28;4301;-55
2023/03/08 00:52:44;;;;;;;;;;;;;;;;;;1038413;28;2698;-55
2023/03/08 00:53:15;;;;;;;;;;;;;;;;;;1038031;28;3907;-52
2023/03/08 00:53:45;;;;;;;;;;;;;;;;;;1038300;28;2548;-51
2023/03/08 00:54:15;;;;;;;;;;;;;;;;;;1037296;28;4074;-52
2023/03/08 00:54:46;;;;;;;;;;;;;;;;;;1042384;28;2959;-52
2023/03/08 00:55:16;;;;;;;;;;;;;;;;;;1042410;28;3894;-53
2023/03/08 00:55:53;;;;;;;;;;;;;;;;;;1041320;28;2755;-53
2023/03/08 00:56:23;;;;;;;;;;;;;;;;;;1042604;28;4090;-52
2023/03/08 00:56:53;;;;;;;;;;;;;;;;;;1042097;28;1790;-55
2023/03/08 00:57:24;;;;;;;;;;;;;;;;;;1042718;28;3963;-53
2023/03/08 00:57:54;;;;;;;;;;;;;;;;;;1042129;28;1928;-53
2023/03/08 00:58:25;;;;;;;;;;;;;;;;;;1037745;28;3844;-52
2023/03/08 00:58:55;;;;;;;;;;;;;;;;;;1038197;28;1762;-50
2023/03/08 00:59:25;;;;;;;;;;;;;;;;;;1039436;28;3867;-54
2023/03/08 00:59:56;;;;;;;;;;;;;;;;;;1038642;28;2084;-55
2023/03/08 01:00:26;;;;;;;;;;;;;;;;;;1041066;28;4003;-52
2023/03/08 01:00:57;;;;;;;;;;;;;;;;;;1044159;28;1587;-53
2023/03/08 01:01:27;;;;;;;;;;;;;;;;;;1043886;28;4079;-52
2023/03/08 01:01:57;;;;;;;;;;;;;;;;;;1042924;28;2566;-54
2023/03/08 01:02:27;;;;;;;;;;;;;;;;;;1043421;28;3983;-52
2023/03/08 01:02:58;;;;;;;;;;;;;;;;;;1044826;28;1675;-51
2023/03/08 01:03:28;;;;;;;;;;;;;;;;;;1043091;28;3895;-52
2023/03/08 01:03:59;;;;;;;;;;;;;;;;;;1043499;28;2234;-53
2023/03/08 01:04:31;;;;;;;;;;;;;;;;;;1043104;28;3994;-54
2023/03/08 01:05:02;;;;;;;;;;;;;;;;;;1044379;28;1888;-51
2023/03/08 01:05:32;;;;;;;;;;;;;;;;;;1041963;28;3738;-51
2023/03/08 01:06:07;;;;;;;;;;;;;;;;;;1043465;28;1922;-54
2023/03/08 01:06:37;;;;;;;;;;;;;;;;;;1043150;28;3809;-50
2023/03/08 01:07:07;;;;;;;;;;;;;;;;;;1043386;28;4018;-51
2023/03/08 01:07:38;;;;;;;;;;;;;;;;;;1044122;28;1627;-55
2023/03/08 01:08:09;;;;;;;;;;;;;;;;;;1042575;28;4013;-54
2023/03/08 01:08:40;;;;;;;;;;;;;;;;;;1043179;28;2640;-54
2023/03/08 01:09:11;;;;;;;;;;;;;;;;;;1042623;28;3969;-53
2023/03/08 01:09:41;;;;;;;;;;;;;;;;;;1043864;28;2996;-54
2023/03/08 01:10:11;;;;;;;;;;;;;;;;;;1042531;28;3983;-53
2023/03/08 01:10:50;;;;;;;;;;;;;;;;;;1043855;28;2637;-54
2023/03/08 01:11:22;;;;;;;;;;;;;;;;;;1043767;28;4069;-52
2023/03/08 01:11:52;;;;;;;;;;;;;;;;;;1043634;28;1829;-51
2023/03/08 01:12:24;;;;;;;;;;;;;;;;;;1043973;28;4158;-53
2023/03/08 01:12:54;;;;;;;;;;;;;;;;;;1043361;28;3018;-54
2023/03/08 01:13:25;;;;;;;;;;;;;;;;;;1042663;28;4040;-53
2023/03/08 01:13:56;;;;;;;;;;;;;;;;;;1043884;28;2832;-53
2023/03/08 01:14:26;;;;;;;;;;;;;;;;;;1043490;28;3955;-53
2023/03/08 01:14:56;;;;;;;;;;;;;;;;;;1041790;28;2790;-54
2023/03/08 01:15:26;;;;;;;;;;;;;;;;;;1039304;28;3857;-54
2023/03/08 01:15:57;;;;;;;;;;;;;;;;;;1039864;28;2072;-56
2023/03/08 01:16:29;;;;;;;;;;;;;;;;;;1039113;28;4204;-53
2023/03/08 01:16:59;;;;;;;;;;;;;;;;;;1039230;28;1996;-51
2023/03/08 01:17:30;;;;;;;;;;;;;;;;;;1043882;28;4047;-55
2023/03/08 01:18:00;;;;;;;;;;;;;;;;;;1042791;28;2409;-52
2023/03/08 01:18:30;;;;;;;;;;;;;;;;;;1043569;28;3865;-53
2023/03/08 01:19:00;;;;;;;;;;;;;;;;;;1043923;28;1632;-54
2023/03/08 01:19:31;;;;;;;;;;;;;;;;;;1043788;28;4063;-53
2023/03/08 01:20:01;;;;;;;;;;;;;;;;;;1045606;28;2326;-55
2023/03/08 01:20:32;;;;;;;;;;;;;;;;;;1043708;28;4422;-53
2023/03/08 01:21:03;;;;;;;;;;;;;;;;;;1044538;28;1776;-54
2023/03/08 01:21:33;;;;;;;;;;;;;;;;;;1043455;28;3847;-53
2023/03/08 01:22:03;;;;;;;;;;;;;;;;;;1044045;28;1843;-53
2023/03/08 01:22:34;;;;;;;;;;;;;;;;;;1043921;28;3858;-51
2023/03/08 01:23:04;;;;;;;;;;;;;;;;;;1042610;28;3064;-53
2023/03/08 01:23:34;;;;;;;;;;;;;;;;;;1041267;28;3799;-51
2023/03/08 01:24:05;;;;;;;;;;;;;;;;;;1043652;28;3935;-53
2023/03/08 01:24:35;;;;;;;;;;;;;;;;;;1039294;28;1819;-52
2023/03/08 01:25:05;;;;;;;;;;;;;;;;;;1036412;28;3864;-55
2023/03/08 01:25:36;;;;;;;;;;;;;;;;;;1037635;28;2809;-55
2023/03/08 01:26:07;;;;;;;;;;;;;;;;;;1039670;28;3893;-55
2023/03/08 01:26:37;;;;;;;;;;;;;;;;;;1043277;28;1640;-54
2023/03/08 01:27:08;;;;;;;;;;;;;;;;;;1043672;28;4144;-54
2023/03/08 01:27:38;;;;;;;;;;;;;;;;;;1043075;28;3043;-53
2023/03/08 01:28:08;;;;;;;;;;;;;;;;;;1042335;28;4182;-54
2023/03/08 01:28:39;;;;;;;;;;;;;;;;;;1043228;28;2063;-52
2023/03/08 01:29:09;;;;;;;;;;;;;;;;;;1043615;28;4059;-53
2023/03/08 01:29:39;;;;;;;;;;;;;;;;;;1043177;28;2813;-51
2023/03/08 01:30:10;;;;;;;;;;;;;;;;;;1042205;28;4010;-54
2023/03/08 01:30:40;;;;;;;;;;;;;;;;;;1042243;28;3101;-54
2023/03/08 01:31:11;;;;;;;;;;;;;;;;;;1042587;28;4053;-52
2023/03/08 01:31:42;;;;;;;;;;;;;;;;;;1042539;28;2276;-51
2023/03/08 01:32:12;;;;;;;;;;;;;;;;;;1043465;28;4044;-51
2023/03/08 01:32:42;;;;;;;;;;;;;;;;;;1044007;28;1813;-51
2023/03/08 01:33:12;;;;;;;;;;;;;;;;;;1043538;28;4048;-50
2023/03/08 01:33:43;;;;;;;;;;;;;;;;;;1041930;28;2638;-51
2023/03/08 01:34:13;;;;;;;;;;;;;;;;;;1043095;28;4080;-52
2023/03/08 01:34:44;;;;;;;;;;;;;;;;;;1043919;28;1934;-53
2023/03/08 01:35:14;;;;;;;;;;;;;;;;;;1043142;28;4025;-54
2023/03/08 01:35:44;;;;;;;;;;;;;;;;;;1044056;28;2731;-52
2023/03/08 01:36:16;;;;;;;;;;;;;;;;;;1043303;28;3846;-54
2023/03/08 01:36:46;;;;;;;;;;;;;;;;;;1044489;28;1537;-54
2023/03/08 01:37:16;;;;;;;;;;;;;;;;;;1044067;28;4044;-55
2023/03/08 01:37:52;;;;;;;;;;;;;;;;;;1044127;28;1778;-50
2023/03/08 01:38:23;;;;;;;;;;;;;;;;;;1043883;28;3887;-56
2023/03/08 01:38:53;;;;;;;;;;;;;;;;;;1044254;28;2724;-55
2023/03/08 01:39:23;;;;;;;;;;;;;;;;;;1043112;28;3759;-54
2023/03/08 01:39:54;;;;;;;;;;;;;;;;;;1043728;28;2092;-53
2023/03/08 01:40:24;;;;;;;;;;;;;;;;;;1042616;28;4420;-54
2023/03/08 01:40:55;;;;;;;;;;;;;;;;;;1044008;28;2013;-54
2023/03/08 01:41:27;;;;;;;;;;;;;;;;;;1042926;28;4043;-51
2023/03/08 01:41:58;;;;;;;;;;;;;;;;;;1043633;28;1831;-53
2023/03/08 01:42:28;;;;;;;;;;;;;;;;;;1043122;28;4046;-52
2023/03/08 01:42:58;;;;;;;;;;;;;;;;;;1043930;28;1777;-52
2023/03/08 01:43:33;;;;;;;;;;;;;;;;;;1041226;28;4017;-52
2023/03/08 01:44:03;;;;;;;;;;;;;;;;;;1042784;28;2229;-53
2023/03/08 01:44:52;;;;;;;;;;;;;;;;;;1042751;28;3717;-53
2023/03/08 01:45:41;;;;;;;;;;;;;;;;;;1039493;28;4011;-50
2023/03/08 01:46:14;;;;;;;;;;;;;;;;;;1043786;28;4129;-54
2023/03/08 01:46:45;;;;;;;;;;;;;;;;;;1043228;28;2776;-55
2023/03/08 01:47:17;;;;;;;;;;;;;;;;;;1043403;28;3842;-53
2023/03/08 01:47:48;;;;;;;;;;;;;;;;;;1042841;28;2798;-52
2023/03/08 01:48:19;;;;;;;;;;;;;;;;;;1044094;28;4046;-54
2023/03/08 01:48:52;;;;;;;;;;;;;;;;;;1042436;28;2915;-54
2023/03/08 01:49:32;;;;;;;;;;;;;;;;;;1042751;28;4015;-53
2023/03/08 01:50:04;;;;;;;;;;;;;;;;;;1042576;28;1796;-50
2023/03/08 01:50:34;;;;;;;;;;;;;;;;;;1044027;28;3969;-52
2023/03/08 01:51:06;;;;;;;;;;;;;;;;;;1039674;28;4281;-53
2023/03/08 01:51:52;;;;;;;;;;;;;;;;;;1038800;28;2706;-53
2023/03/08 01:52:40;;;;;;;;;;;;;;;;;;1038056;28;4111;-53
2023/03/08 01:53:10;;;;;;;;;;;;;;;;;;1037336;28;3880;-55
2023/03/08 01:53:41;;;;;;;;;;;;;;;;;;1037278;28;2899;-52
2023/03/08 01:54:14;;;;;;;;;;;;;;;;;;1040966;28;4232;-51
2023/03/08 01:54:47;;;;;;;;;;;;;;;;;;1044316;28;1583;-53
2023/03/08 01:55:17;;;;;;;;;;;;;;;;;;1041276;28;3861;-52
2023/03/08 01:55:48;;;;;;;;;;;;;;;;;;1043293;28;1771;-53
2023/03/08 01:56:19;;;;;;;;;;;;;;;;;;1043643;28;4038;-53
2023/03/08 01:56:49;;;;;;;;;;;;;;;;;;1043730;28;1739;-52
2023/03/08 01:57:25;;;;;;;;;;;;;;;;;;1043784;28;4047;-52
2023/03/08 01:57:56;;;;;;;;;;;;;;;;;;1043762;28;1763;-52
2023/03/08 01:58:26;;;;;;;;;;;;;;;;;;1043837;28;4070;-52
2023/03/08 01:58:57;;;;;;;;;;;;;;;;;;1043058;28;2680;-53
2023/03/08 01:59:29;;;;;;;;;;;;;;;;;;1043479;28;4017;-52
2023/03/08 02:00:04;;;;;;;;;;;;;;;;;;1043584;28;2602;-53
2023/03/08 02:00:36;;;;;;;;;;;;;;;;;;1040870;28;4020;-51
2023/03/08 02:01:06;;;;;;;;;;;;;;;;;;1043188;28;4175;-51
2023/03/08 02:01:37;;;;;;;;;;;;;;;;;;1038124;28;3003;-52
2023/03/08 02:02:08;;;;;;;;;;;;;;;;;;1037831;28;4041;-54
2023/03/08 02:02:40;;;;;;;;;;;;;;;;;;1039280;28;1831;-53
2023/03/08 02:03:10;;;;;;;;;;;;;;;;;;1039298;28;4078;-55
2023/03/08 02:03:41;;;;;;;;;;;;;;;;;;1042703;28;2244;-50
2023/03/08 02:04:11;;;;;;;;;;;;;;;;;;1042894;28;4201;-51
2023/03/08 02:04:42;;;;;;;;;;;;;;;;;;1043752;28;1747;-54
2023/03/08 02:05:12;;;;;;;;;;;;;;;;;;1043601;28;4114;-51
2023/03/08 02:05:43;;;;;;;;;;;;;;;;;;1043380;28;2368;-51
2023/03/08 02:06:14;;;;;;;;;;;;;;;;;;1041563;28;4099;-52
2023/03/08 02:06:45;;;;;;;;;;;;;;;;;;1043921;28;2237;-54
2023/03/08 02:07:15;;;;;;;;;;;;;;;;;;1042679;28;3874;-54
2023/03/08 02:07:45;;;;;;;;;;;;;;;;;;1043086;28;1930;-51
2023/03/08 02:08:15;;;;;;;;;;;;;;;;;;1043991;28;3779;-54
2023/03/08 02:08:46;;;;;;;;;;;;;;;;;;1038376;28;2717;-55
2023/03/08 02:09:16;;;;;;;;;;;;;;;;;;1038884;28;4045;-54
2023/03/08 02:09:47;;;;;;;;;;;;;;;;;;1039200;28;1863;-53
2023/03/08 02:10:18;;;;;;;;;;;;;;;;;;1035803;28;3857;-51
2023/03/08 02:10:49;;;;;;;;;;;;;;;;;;1042494;28;2574;-53
2023/03/08 02:11:20;;;;;;;;;;;;;;;;;;1042959;28;3857;-54
2023/03/08 02:11:51;;;;;;;;;;;;;;;;;;1043552;28;2770;-55
2023/03/08 02:12:21;;;;;;;;;;;;;;;;;;1042933;28;4048;-53
2023/03/08 02:12:52;;;;;;;;;;;;;;;;;;1043378;28;1557;-52
2023/03/08 02:13:23;;;;;;;;;;;;;;;;;;1042173;28;4048;-53
2023/03/08 02:13:54;;;;;;;;;;;;;;;;;;1041717;28;1913;-55
2023/03/08 02:14:24;;;;;;;;;;;;;;;;;;1043165;28;3880;-51
2023/03/08 02:14:56;;;;;;;;;;;;;;;;;;1043566;28;1688;-53
2023/03/08 02:15:26;;;;;;;;;;;;;;;;;;1042726;28;4117;-51
2023/03/08 02:15:57;;;;;;;;;;;;;;;;;;1041605;28;2931;-52
2023/03/08 02:16:27;;;;;;;;;;;;;;;;;;1041217;28;3884;-54
2023/03/08 02:16:57;;;;;;;;;;;;;;;;;;1043394;28;1723;-52
2023/03/08 02:17:28;;;;;;;;;;;;;;;;;;1041881;28;4185;-52
2023/03/08 02:17:58;;;;;;;;;;;;;;;;;;1043614;28;1581;-54
2023/03/08 02:18:28;;;;;;;;;;;;;;;;;;1042830;28;4184;-51
2023/03/08 02:19:04;;;;;;;;;;;;;;;;;;1043701;28;1705;-55
2023/03/08 02:19:43;;;;;;;;;;;;;;;;;;1042484;28;3949;-53
2023/03/08 02:20:17;;;;;;;;;;;;;;;;;;1043111;28;3983;-54
2023/03/08 02:20:47;;;;;;;;;;;;;;;;;;1042556;28;1744;-53
2023/03/08 02:21:17;;;;;;;;;;;;;;;;;;1040368;28;3983;-54
2023/03/08 02:21:47;;;;;;;;;;;;;;;;;;1042976;28;1797;-53
2023/03/08 02:22:18;;;;;;;;;;;;;;;;;;1041025;28;4041;-52
2023/03/08 02:22:51;;;;;;;;;;;;;;;;;;1043597;28;1814;-53
2023/03/08 02:23:23;;;;;;;;;;;;;;;;;;1042906;28;3855;-52
2023/03/08 02:23:54;;;;;;;;;;;;;;;;;;1042795;28;2343;-54
2023/03/08 02:24:24;;;;;;;;;;;;;;;;;;1043186;28;3829;-53
2023/03/08 02:24:54;;;;;;;;;;;;;;;;;;1044182;28;1938;-52
2023/03/08 02:25:25;;;;;;;;;;;;;;;;;;1040419;28;4189;-53
2023/03/08 02:26:03;;;;;;;;;;;;;;;;;;1041739;28;2895;-55
2023/03/08 02:26:34;;;;;;;;;;;;;;;;;;1042827;28;4063;-53
2023/03/08 02:27:25;;;;;;;;;;;;;;;;;;1042977;28;3881;-50
2023/03/08 02:27:56;;;;;;;;;;;;;;;;;;1042230;28;1949;-54
2023/03/08 02:28:27;;;;;;;;;;;;;;;;;;1041076;28;3850;-51
2023/03/08 02:28:57;;;;;;;;;;;;;;;;;;1044315;28;2820;-51
2023/03/08 02:29:28;;;;;;;;;;;;;;;;;;1042762;28;3847;-53
2023/03/08 02:29:58;;;;;;;;;;;;;;;;;;1042893;28;1812;-51
2023/03/08 02:30:30;;;;;;;;;;;;;;;;;;1041934;28;3839;-50
2023/03/08 02:31:00;;;;;;;;;;;;;;;;;;1042468;28;2688;-51
2023/03/08 02:31:30;;;;;;;;;;;;;;;;;;1040257;28;4052;-52
2023/03/08 02:32:00;;;;;;;;;;;;;;;;;;1042400;28;2425;-53
2023/03/08 02:32:31;;;;;;;;;;;;;;;;;;1042295;28;3801;-52
2023/03/08 02:33:01;;;;;;;;;;;;;;;;;;1044184;28;2793;-51
2023/03/08 02:33:34;;;;;;;;;;;;;;;;;;1042014;28;4008;-51
2023/03/08 02:34:05;;;;;;;;;;;;;;;;;;1040516;28;4105;-52
2023/03/08 02:34:35;;;;;;;;;;;;;;;;;;1042975;28;2796;-55
2023/03/08 02:35:06;;;;;;;;;;;;;;;;;;1042879;28;4176;-52
2023/03/08 02:35:37;;;;;;;;;;;;;;;;;;1043905;28;2995;-53
2023/03/08 02:36:08;;;;;;;;;;;;;;;;;;1042483;28;4104;-51
2023/03/08 02:36:38;;;;;;;;;;;;;;;;;;1043069;28;1820;-52
2023/03/08 02:37:09;;;;;;;;;;;;;;;;;;1043356;28;4540;-53
2023/03/08 02:37:39;;;;;;;;;;;;;;;;;;1044288;28;2713;-54
2023/03/08 02:38:14;;;;;;;;;;;;;;;;;;1043106;28;3770;-52
2023/03/08 02:38:44;;;;;;;;;;;;;;;;;;1042855;28;2124;-50
2023/03/08 02:39:14;;;;;;;;;;;;;;;;;;1041787;28;3982;-53
2023/03/08 02:39:44;;;;;;;;;;;;;;;;;;1042664;28;2636;-52
2023/03/08 02:40:15;;;;;;;;;;;;;;;;;;1039392;28;4043;-54
2023/03/08 02:40:45;;;;;;;;;;;;;;;;;;1042830;28;2774;-54
2023/03/08 02:41:16;;;;;;;;;;;;;;;;;;1043163;28;3970;-52
2023/03/08 02:41:46;;;;;;;;;;;;;;;;;;1041765;28;2343;-52
2023/03/08 02:42:16;;;;;;;;;;;;;;;;;;1041487;28;4052;-52
2023/03/08 02:42:46;;;;;;;;;;;;;;;;;;1043946;28;2883;-50
2023/03/08 02:43:17;;;;;;;;;;;;;;;;;;1042621;28;3908;-54
2023/03/08 02:43:47;;;;;;;;;;;;;;;;;;1042463;28;2724;-52
2023/03/08 02:44:17;;;;;;;;;;;;;;;;;;1042477;28;4760;-51
2023/03/08 02:44:48;;;;;;;;;;;;;;;;;;1043254;28;2229;-53
2023/03/08 02:45:18;;;;;;;;;;;;;;;;;;1040898;28;3899;-52
2023/03/08 02:45:48;;;;;;;;;;;;;;;;;;1040480;28;2965;-53
2023/03/08 02:46:18;;;;;;;;;;;;;;;;;;1041553;28;4440;-51
2023/03/08 02:46:49;;;;;;;;;;;;;;;;;;1041811;28;2875;-54
2023/03/08 02:47:19;;;;;;;;;;;;;;;;;;1041682;28;5534;-53
2023/03/08 02:47:50;;;;;;;;;;;;;;;;;;1042212;28;2956;-53
2023/03/08 02:48:20;;;;;;;;;;;;;;;;;;1041314;28;4387;-51
2023/03/08 02:48:51;;;;;;;;;;;;;;;;;;1042260;28;2248;-53
2023/03/08 02:49:21;;;;;;;;;;;;;;;;;;1040143;28;3857;-54
2023/03/08 02:49:52;;;;;;;;;;;;;;;;;;1042319;28;1781;-53
2023/03/08 02:50:22;;;;;;;;;;;;;;;;;;1042544;28;4254;-51
2023/03/08 02:50:52;;;;;;;;;;;;;;;;;;1040570;28;3115;-50
2023/03/08 02:51:22;;;;;;;;;;;;;;;;;;1041352;28;3901;-54
2023/03/08 02:51:53;;;;;;;;;;;;;;;;;;1043629;28;2611;-52
2023/03/08 02:52:23;;;;;;;;;;;;;;;;;;1044125;28;4073;-54
2023/03/08 02:52:53;;;;;;;;;;;;;;;;;;1041883;28;2724;-53
2023/03/08 02:53:23;;;;;;;;;;;;;;;;;;1040221;28;4049;-52
2023/03/08 02:53:54;;;;;;;;;;;;;;;;;;1042160;28;3015;-52
2023/03/08 02:54:24;;;;;;;;;;;;;;;;;;1039427;28;3857;-54
2023/03/08 02:54:54;;;;;;;;;;;;;;;;;;1041359;28;2097;-56
2023/03/08 02:55:25;;;;;;;;;;;;;;;;;;1042496;28;3804;-53
2023/03/08 02:55:55;;;;;;;;;;;;;;;;;;1042528;28;2105;-53
2023/03/08 02:56:26;;;;;;;;;;;;;;;;;;1042609;28;4021;-51
2023/03/08 02:56:56;;;;;;;;;;;;;;;;;;1042405;28;2817;-50
2023/03/08 02:57:26;;;;;;;;;;;;;;;;;;1042532;28;4039;-53
2023/03/08 02:57:56;;;;;;;;;;;;;;;;;;1043644;28;1764;-55
2023/03/08 02:58:26;;;;;;;;;;;;;;;;;;1042059;28;4007;-53
2023/03/08 02:58:57;;;;;;;;;;;;;;;;;;1043406;28;1753;-54
2023/03/08 02:59:27;;;;;;;;;;;;;;;;;;1041505;28;4073;-52
2023/03/08 02:59:58;;;;;;;;;;;;;;;;;;1043476;28;1718;-51
2023/03/08 03:00:28;;;;;;;;;;;;;;;;;;1041775;28;4231;-51
2023/03/08 03:00:58;;;;;;;;;;;;;;;;;;1040900;28;2631;-53
2023/03/08 03:01:28;;;;;;;;;;;;;;;;;;1042727;28;4087;-52
2023/03/08 03:01:59;;;;;;;;;;;;;;;;;;1043021;28;2677;-53
2023/03/08 03:02:31;;;;;;;;;;;;;;;;;;1042704;28;4017;-51
2023/03/08 03:03:01;;;;;;;;;;;;;;;;;;1042270;28;2621;-55
2023/03/08 03:03:31;;;;;;;;;;;;;;;;;;1042725;28;3991;-52
2023/03/08 03:04:02;;;;;;;;;;;;;;;;;;1043270;28;1856;-55
2023/03/08 03:04:33;;;;;;;;;;;;;;;;;;1041110;28;3818;-53
2023/03/08 03:05:03;;;;;;;;;;;;;;;;;;1042977;28;1916;-51
2023/03/08 03:05:34;;;;;;;;;;;;;;;;;;1041981;28;3959;-50
2023/03/08 03:06:04;;;;;;;;;;;;;;;;;;1041549;28;2361;-52
2023/03/08 03:06:34;;;;;;;;;;;;;;;;;;1042605;28;3845;-51
2023/03/08 03:07:04;;;;;;;;;;;;;;;;;;1041854;28;3924;-54
2023/03/08 03:07:35;;;;;;;;;;;;;;;;;;1042825;28;1914;-51
2023/03/08 03:08:06;;;;;;;;;;;;;;;;;;1042619;28;4094;-54
2023/03/08 03:08:36;;;;;;;;;;;;;;;;;;1042425;28;2226;-53
2023/03/08 03:09:07;;;;;;;;;;;;;;;;;;1042390;28;4038;-50
2023/03/08 03:09:37;;;;;;;;;;;;;;;;;;1042279;28;1845;-54
2023/03/08 03:10:08;;;;;;;;;;;;;;;;;;1038807;28;4047;-51
2023/03/08 03:10:38;;;;;;;;;;;;;;;;;;1038629;28;2264;-54
2023/03/08 03:11:09;;;;;;;;;;;;;;;;;;1038451;28;4040;-55
2023/03/08 03:11:40;;;;;;;;;;;;;;;;;;1037365;28;2546;-54
2023/03/08 03:12:10;;;;;;;;;;;;;;;;;;1042166;28;4129;-55
2023/03/08 03:12:42;;;;;;;;;;;;;;;;;;1043210;28;2362;-52
2023/03/08 03:13:12;;;;;;;;;;;;;;;;;;1042708;28;3777;-52
2023/03/08 03:13:43;;;;;;;;;;;;;;;;;;1042342;28;2231;-53
2023/03/08 03:14:14;;;;;;;;;;;;;;;;;;1041013;28;3987;-54
2023/03/08 03:14:44;;;;;;;;;;;;;;;;;;1040601;28;2303;-54
2023/03/08 03:15:14;;;;;;;;;;;;;;;;;;1041290;28;3936;-51
2023/03/08 03:15:44;;;;;;;;;;;;;;;;;;1041069;28;2899;-52
2023/03/08 03:16:15;;;;;;;;;;;;;;;;;;1040743;28;3878;-52
2023/03/08 03:16:45;;;;;;;;;;;;;;;;;;1044154;28;2789;-52
2023/03/08 03:17:15;;;;;;;;;;;;;;;;;;1041698;28;3882;-55
2023/03/08 03:17:46;;;;;;;;;;;;;;;;;;1042027;28;1644;-51
2023/03/08 03:18:16;;;;;;;;;;;;;;;;;;1042597;28;4060;-50
2023/03/08 03:18:46;;;;;;;;;;;;;;;;;;1042686;28;1925;-55
2023/03/08 03:19:16;;;;;;;;;;;;;;;;;;1042013;28;4245;-54
2023/03/08 03:19:47;;;;;;;;;;;;;;;;;;1042411;28;1732;-51
2023/03/08 03:20:17;;;;;;;;;;;;;;;;;;1042265;28;4101;-53
2023/03/08 03:20:47;;;;;;;;;;;;;;;;;;1042546;28;2332;-52
2023/03/08 03:21:18;;;;;;;;;;;;;;;;;;1042941;28;4039;-55
2023/03/08 03:21:48;;;;;;;;;;;;;;;;;;1042073;28;2981;-54
2023/03/08 03:22:18;;;;;;;;;;;;;;;;;;1041259;28;3790;-52
2023/03/08 03:22:49;;;;;;;;;;;;;;;;;;1042669;28;1857;-53
2023/03/08 03:23:19;;;;;;;;;;;;;;;;;;1041298;28;4027;-51
2023/03/08 03:23:49;;;;;;;;;;;;;;;;;;1042272;28;1643;-53
2023/03/08 03:24:20;;;;;;;;;;;;;;;;;;1041468;28;3904;-48
2023/03/08 03:24:50;;;;;;;;;;;;;;;;;;1041765;28;3378;-52
2023/03/08 03:25:20;;;;;;;;;;;;;;;;;;1043221;28;4133;-53
2023/03/08 03:25:50;;;;;;;;;;;;;;;;;;1041440;28;2041;-54
2023/03/08 03:26:22;;;;;;;;;;;;;;;;;;1040516;28;3942;-53
2023/03/08 03:26:52;;;;;;;;;;;;;;;;;;1040717;28;2243;-54
2023/03/08 03:27:22;;;;;;;;;;;;;;;;;;1042448;28;3922;-53
2023/03/08 03:27:53;;;;;;;;;;;;;;;;;;1041875;28;1914;-54
2023/03/08 03:28:23;;;;;;;;;;;;;;;;;;1040099;28;4044;-56
2023/03/08 03:28:57;;;;;;;;;;;;;;;;;;1041006;28;2671;-53
2023/03/08 03:29:27;;;;;;;;;;;;;;;;;;1041872;28;3885;-51
2023/03/08 03:29:58;;;;;;;;;;;;;;;;;;1042600;28;2860;-54
2023/03/08 03:30:28;;;;;;;;;;;;;;;;;;1041961;28;3985;-55
2023/03/08 03:30:58;;;;;;;;;;;;;;;;;;1040589;28;2832;-54
2023/03/08 03:31:29;;;;;;;;;;;;;;;;;;1038893;28;3798;-53
2023/03/08 03:32:00;;;;;;;;;;;;;;;;;;1043840;28;1856;-51
2023/03/08 03:32:30;;;;;;;;;;;;;;;;;;1041126;28;4041;-53
2023/03/08 03:33:00;;;;;;;;;;;;;;;;;;1043566;28;1566;-52
2023/03/08 03:33:30;;;;;;;;;;;;;;;;;;1040269;28;3865;-53
2023/03/08 03:34:01;;;;;;;;;;;;;;;;;;1043476;28;1696;-51
2023/03/08 03:34:31;;;;;;;;;;;;;;;;;;1040269;28;3992;-51
2023/03/08 03:35:02;;;;;;;;;;;;;;;;;;1041757;28;2237;-52
2023/03/08 03:35:32;;;;;;;;;;;;;;;;;;1041419;28;3967;-50